sensor_id;sensor_type;location;lat;lon;timestamp;temperature;humidity
46139;DHT22;32398;49.112;8.598;2023-02-19T00:00:51;10.70;92.30
46139;DHT22;32398;49.112;8.598;2023-02-19T00:03:17;10.70;92.30
46139;DHT22;32398;49.112;8.598;2023-02-19T00:05:45;10.80;92.40
46139;DHT22;32398;49.112;8.598;2023-02-19T00:08:12;10.70;92.40
46139;DHT22;32398;49.112;8.598;2023-02-19T00:10:38;10.70;92.40
46139;DHT22;32398;49.112;8.598;2023-02-19T00:13:05;10.70;92.40
46139;DHT22;32398;49.112;8.598;2023-02-19T00:15:31;10.70;92.50
46139;DHT22;32398;49.112;8.598;2023-02-19T00:17:58;10.70;92.50
46139;DHT22;32398;49.112;8.598;2023-02-19T00:20:25;10.70;92.50
46139;DHT22;32398;49.112;8.598;2023-02-19T00:22:52;10.70;92.50
46139;DHT22;32398;49.112;8.598;2023-02-19T00:25:19;10.70;92.50
46139;DHT22;32398;49.112;8.598;2023-02-19T00:27:45;10.60;92.50
46139;DHT22;32398;49.112;8.598;2023-02-19T00:30:12;10.70;92.60
46139;DHT22;32398;49.112;8.598;2023-02-19T00:32:39;10.60;92.60
46139;DHT22;32398;49.112;8.598;2023-02-19T00:35:05;10.60;92.60
46139;DHT22;32398;49.112;8.598;2023-02-19T00:37:32;10.60;92.70
46139;DHT22;32398;49.112;8.598;2023-02-19T00:40:00;10.60;92.70
46139;DHT22;32398;49.112;8.598;2023-02-19T00:42:26;10.60;92.80
46139;DHT22;32398;49.112;8.598;2023-02-19T00:44:53;10.60;92.80
46139;DHT22;32398;49.112;8.598;2023-02-19T00:47:19;10.60;92.80
46139;DHT22;32398;49.112;8.598;2023-02-19T00:49:46;10.60;92.90
46139;DHT22;32398;49.112;8.598;2023-02-19T00:52:12;10.60;92.90
46139;DHT22;32398;49.112;8.598;2023-02-19T00:54:39;10.60;92.90
46139;DHT22;32398;49.112;8.598;2023-02-19T00:57:07;10.60;93.00
46139;DHT22;32398;49.112;8.598;2023-02-19T00:59:33;10.60;93.10
46139;DHT22;32398;49.112;8.598;2023-02-19T01:02:01;10.50;93.10
46139;DHT22;32398;49.112;8.598;2023-02-19T01:04:27;10.50;93.10
46139;DHT22;32398;49.112;8.598;2023-02-19T01:06:54;10.50;93.10
46139;DHT22;32398;49.112;8.598;2023-02-19T01:09:20;10.50;93.20
46139;DHT22;32398;49.112;8.598;2023-02-19T01:11:47;10.50;93.30
46139;DHT22;32398;49.112;8.598;2023-02-19T01:14:15;10.50;93.30
46139;DHT22;32398;49.112;8.598;2023-02-19T01:16:41;10.40;93.30
46139;DHT22;32398;49.112;8.598;2023-02-19T01:19:08;10.50;93.40
46139;DHT22;32398;49.112;8.598;2023-02-19T01:21:34;10.50;93.40
46139;DHT22;32398;49.112;8.598;2023-02-19T01:24:01;10.50;93.50
46139;DHT22;32398;49.112;8.598;2023-02-19T01:26:28;10.40;93.50
46139;DHT22;32398;49.112;8.598;2023-02-19T01:28:55;10.40;93.50
46139;DHT22;32398;49.112;8.598;2023-02-19T01:31:24;10.40;93.50
46139;DHT22;32398;49.112;8.598;2023-02-19T01:33:51;10.40;93.50
46139;DHT22;32398;49.112;8.598;2023-02-19T01:36:17;10.40;93.60
46139;DHT22;32398;49.112;8.598;2023-02-19T01:38:44;10.40;93.60
46139;DHT22;32398;49.112;8.598;2023-02-19T01:41:12;10.40;93.70
46139;DHT22;32398;49.112;8.598;2023-02-19T01:43:55;10.40;93.70
46139;DHT22;32398;49.112;8.598;2023-02-19T01:46:24;10.40;93.70
46139;DHT22;32398;49.112;8.598;2023-02-19T01:48:51;10.40;93.70
46139;DHT22;32398;49.112;8.598;2023-02-19T01:51:19;10.30;93.70
46139;DHT22;32398;49.112;8.598;2023-02-19T01:53:48;10.40;93.80
46139;DHT22;32398;49.112;8.598;2023-02-19T01:56:17;10.30;93.80
46139;DHT22;32398;49.112;8.598;2023-02-19T01:58:44;10.30;93.80
46139;DHT22;32398;49.112;8.598;2023-02-19T02:01:10;10.30;93.80
46139;DHT22;32398;49.112;8.598;2023-02-19T02:03:39;10.30;93.80
46139;DHT22;32398;49.112;8.598;2023-02-19T02:06:08;10.30;93.80
46139;DHT22;32398;49.112;8.598;2023-02-19T02:08:37;10.30;93.90
46139;DHT22;32398;49.112;8.598;2023-02-19T02:11:21;10.30;93.90
46139;DHT22;32398;49.112;8.598;2023-02-19T02:13:48;10.30;93.90
46139;DHT22;32398;49.112;8.598;2023-02-19T02:16:22;10.30;93.90
46139;DHT22;32398;49.112;8.598;2023-02-19T02:18:53;10.30;93.90
46139;DHT22;32398;49.112;8.598;2023-02-19T02:24:10;10.30;94.00
46139;DHT22;32398;49.112;8.598;2023-02-19T02:26:42;10.30;94.00
46139;DHT22;32398;49.112;8.598;2023-02-19T02:29:17;10.30;94.00
46139;DHT22;32398;49.112;8.598;2023-02-19T02:31:47;10.30;94.00
46139;DHT22;32398;49.112;8.598;2023-02-19T02:34:16;10.30;94.00
46139;DHT22;32398;49.112;8.598;2023-02-19T02:36:44;10.20;94.00
46139;DHT22;32398;49.112;8.598;2023-02-19T02:39:13;10.20;94.00
46139;DHT22;32398;49.112;8.598;2023-02-19T02:41:41;10.20;94.00
46139;DHT22;32398;49.112;8.598;2023-02-19T02:44:08;10.20;94.00
46139;DHT22;32398;49.112;8.598;2023-02-19T02:46:34;10.20;94.00
46139;DHT22;32398;49.112;8.598;2023-02-19T02:49:05;10.20;94.10
46139;DHT22;32398;49.112;8.598;2023-02-19T02:51:34;10.20;94.10
46139;DHT22;32398;49.112;8.598;2023-02-19T02:54:02;10.20;94.10
46139;DHT22;32398;49.112;8.598;2023-02-19T02:56:48;10.20;94.10
46139;DHT22;32398;49.112;8.598;2023-02-19T02:59:16;10.20;94.10
46139;DHT22;32398;49.112;8.598;2023-02-19T03:01:44;10.20;94.20
46139;DHT22;32398;49.112;8.598;2023-02-19T03:04:31;10.20;94.20
46139;DHT22;32398;49.112;8.598;2023-02-19T03:06:59;10.10;94.20
46139;DHT22;32398;49.112;8.598;2023-02-19T03:09:27;10.10;94.20
46139;DHT22;32398;49.112;8.598;2023-02-19T03:11:56;10.10;94.20
46139;DHT22;32398;49.112;8.598;2023-02-19T03:14:42;10.10;94.30
46139;DHT22;32398;49.112;8.598;2023-02-19T03:17:28;10.10;94.30
46139;DHT22;32398;49.112;8.598;2023-02-19T03:20:16;10.10;94.40
46139;DHT22;32398;49.112;8.598;2023-02-19T03:22:44;10.10;94.40
46139;DHT22;32398;49.112;8.598;2023-02-19T03:25:12;10.10;94.70
46139;DHT22;32398;49.112;8.598;2023-02-19T03:27:58;10.10;94.40
46139;DHT22;32398;49.112;8.598;2023-02-19T03:30:27;10.10;94.50
46139;DHT22;32398;49.112;8.598;2023-02-19T03:32:56;10.10;94.50
46139;DHT22;32398;49.112;8.598;2023-02-19T03:35:26;10.10;94.50
46139;DHT22;32398;49.112;8.598;2023-02-19T03:37:56;10.10;94.70
46139;DHT22;32398;49.112;8.598;2023-02-19T03:40:26;10.10;94.60
46139;DHT22;32398;49.112;8.598;2023-02-19T03:42:55;10.10;94.60
46139;DHT22;32398;49.112;8.598;2023-02-19T03:45:26;10.00;94.60
46139;DHT22;32398;49.112;8.598;2023-02-19T03:47:57;10.00;94.60
46139;DHT22;32398;49.112;8.598;2023-02-19T03:50:28;10.00;94.70
46139;DHT22;32398;49.112;8.598;2023-02-19T03:52:58;10.00;94.70
46139;DHT22;32398;49.112;8.598;2023-02-19T03:55:29;10.00;94.80
46139;DHT22;32398;49.112;8.598;2023-02-19T03:57:57;10.00;94.80
46139;DHT22;32398;49.112;8.598;2023-02-19T04:00:29;10.00;94.80
46139;DHT22;32398;49.112;8.598;2023-02-19T04:02:57;10.00;94.90
46139;DHT22;32398;49.112;8.598;2023-02-19T04:05:26;10.00;94.90
46139;DHT22;32398;49.112;8.598;2023-02-19T04:07:56;10.00;95.00
46139;DHT22;32398;49.112;8.598;2023-02-19T04:10:24;10.00;95.10
46139;DHT22;32398;49.112;8.598;2023-02-19T04:12:52;9.90;95.20
46139;DHT22;32398;49.112;8.598;2023-02-19T04:15:20;9.90;95.30
46139;DHT22;32398;49.112;8.598;2023-02-19T04:17:49;9.90;95.30
46139;DHT22;32398;49.112;8.598;2023-02-19T04:20:18;9.90;95.30
46139;DHT22;32398;49.112;8.598;2023-02-19T04:22:45;9.90;95.40
46139;DHT22;32398;49.112;8.598;2023-02-19T04:25:14;9.90;95.40
46139;DHT22;32398;49.112;8.598;2023-02-19T04:27:40;9.90;95.50
46139;DHT22;32398;49.112;8.598;2023-02-19T04:30:11;9.90;95.60
46139;DHT22;32398;49.112;8.598;2023-02-19T04:32:37;9.90;95.70
46139;DHT22;32398;49.112;8.598;2023-02-19T04:35:04;9.90;95.80
46139;DHT22;32398;49.112;8.598;2023-02-19T04:37:31;9.90;95.80
46139;DHT22;32398;49.112;8.598;2023-02-19T04:39:57;9.80;95.80
46139;DHT22;32398;49.112;8.598;2023-02-19T04:42:25;9.80;95.90
46139;DHT22;32398;49.112;8.598;2023-02-19T04:44:52;9.80;96.00
46139;DHT22;32398;49.112;8.598;2023-02-19T04:47:18;9.80;96.00
46139;DHT22;32398;49.112;8.598;2023-02-19T04:49:45;9.80;96.00
46139;DHT22;32398;49.112;8.598;2023-02-19T04:52:11;9.80;96.10
46139;DHT22;32398;49.112;8.598;2023-02-19T04:54:38;9.80;96.20
46139;DHT22;32398;49.112;8.598;2023-02-19T04:57:04;9.80;96.30
46139;DHT22;32398;49.112;8.598;2023-02-19T04:59:32;9.80;96.40
46139;DHT22;32398;49.112;8.598;2023-02-19T05:01:59;9.80;96.50
46139;DHT22;32398;49.112;8.598;2023-02-19T05:04:25;9.80;96.60
46139;DHT22;32398;49.112;8.598;2023-02-19T05:06:52;9.80;96.70
46139;DHT22;32398;49.112;8.598;2023-02-19T05:09:18;9.70;96.70
46139;DHT22;32398;49.112;8.598;2023-02-19T05:11:45;9.80;96.80
46139;DHT22;32398;49.112;8.598;2023-02-19T05:14:11;9.70;96.70
46139;DHT22;32398;49.112;8.598;2023-02-19T05:16:39;9.70;96.80
46139;DHT22;32398;49.112;8.598;2023-02-19T05:19:06;9.70;96.80
46139;DHT22;32398;49.112;8.598;2023-02-19T05:21:32;9.70;96.90
46139;DHT22;32398;49.112;8.598;2023-02-19T05:23:59;9.70;97.00
46139;DHT22;32398;49.112;8.598;2023-02-19T05:26:25;9.70;97.10
46139;DHT22;32398;49.112;8.598;2023-02-19T05:28:53;9.70;97.20
46139;DHT22;32398;49.112;8.598;2023-02-19T05:31:19;9.70;97.30
46139;DHT22;32398;49.112;8.598;2023-02-19T05:33:47;9.60;97.30
46139;DHT22;32398;49.112;8.598;2023-02-19T05:36:15;9.60;97.30
46139;DHT22;32398;49.112;8.598;2023-02-19T05:38:42;9.60;97.30
46139;DHT22;32398;49.112;8.598;2023-02-19T05:41:09;9.60;97.40
46139;DHT22;32398;49.112;8.598;2023-02-19T05:43:36;9.60;97.40
46139;DHT22;32398;49.112;8.598;2023-02-19T05:46:02;9.60;97.40
46139;DHT22;32398;49.112;8.598;2023-02-19T05:48:29;9.60;97.50
46139;DHT22;32398;49.112;8.598;2023-02-19T05:51:01;9.60;97.50
46139;DHT22;32398;49.112;8.598;2023-02-19T05:53:28;9.60;97.70
46139;DHT22;32398;49.112;8.598;2023-02-19T05:55:54;9.50;97.70
46139;DHT22;32398;49.112;8.598;2023-02-19T05:58:21;9.50;97.80
46139;DHT22;32398;49.112;8.598;2023-02-19T06:00:47;9.50;97.80
46139;DHT22;32398;49.112;8.598;2023-02-19T06:03:14;9.50;97.90
46139;DHT22;32398;49.112;8.598;2023-02-19T06:05:41;9.50;97.90
46139;DHT22;32398;49.112;8.598;2023-02-19T06:08:09;9.50;97.90
46139;DHT22;32398;49.112;8.598;2023-02-19T06:10:37;9.50;97.90
46139;DHT22;32398;49.112;8.598;2023-02-19T06:13:05;9.50;98.00
46139;DHT22;32398;49.112;8.598;2023-02-19T06:15:32;9.50;98.00
46139;DHT22;32398;49.112;8.598;2023-02-19T06:17:58;9.50;98.10
46139;DHT22;32398;49.112;8.598;2023-02-19T06:20:25;9.50;98.10
46139;DHT22;32398;49.112;8.598;2023-02-19T06:22:52;9.40;98.10
46139;DHT22;32398;49.112;8.598;2023-02-19T06:25:20;9.50;98.20
46139;DHT22;32398;49.112;8.598;2023-02-19T06:27:47;9.40;98.10
46139;DHT22;32398;49.112;8.598;2023-02-19T06:30:13;9.50;98.20
46139;DHT22;32398;49.112;8.598;2023-02-19T06:32:40;9.50;98.20
46139;DHT22;32398;49.112;8.598;2023-02-19T06:35:06;9.40;98.10
46139;DHT22;32398;49.112;8.598;2023-02-19T06:37:33;9.40;98.10
46139;DHT22;32398;49.112;8.598;2023-02-19T06:39:59;9.40;98.20
46139;DHT22;32398;49.112;8.598;2023-02-19T06:42:27;9.50;98.30
46139;DHT22;32398;49.112;8.598;2023-02-19T06:44:56;9.40;98.20
46139;DHT22;32398;49.112;8.598;2023-02-19T06:47:22;9.40;98.30
46139;DHT22;32398;49.112;8.598;2023-02-19T06:49:49;9.50;98.30
46139;DHT22;32398;49.112;8.598;2023-02-19T06:52:15;9.40;98.30
46139;DHT22;32398;49.112;8.598;2023-02-19T06:54:42;9.40;98.30
46139;DHT22;32398;49.112;8.598;2023-02-19T06:57:08;9.40;98.30
46139;DHT22;32398;49.112;8.598;2023-02-19T06:59:36;9.40;98.50
46139;DHT22;32398;49.112;8.598;2023-02-19T07:02:03;9.40;98.60
46139;DHT22;32398;49.112;8.598;2023-02-19T07:04:29;9.40;98.60
46139;DHT22;32398;49.112;8.598;2023-02-19T07:06:56;9.40;98.70
46139;DHT22;32398;49.112;8.598;2023-02-19T07:09:24;9.30;98.70
46139;DHT22;32398;49.112;8.598;2023-02-19T07:11:52;9.40;98.90
46139;DHT22;32398;49.112;8.598;2023-02-19T07:14:19;9.40;98.90
46139;DHT22;32398;49.112;8.598;2023-02-19T07:16:47;9.30;99.00
46139;DHT22;32398;49.112;8.598;2023-02-19T07:19:14;9.30;99.10
46139;DHT22;32398;49.112;8.598;2023-02-19T07:21:40;9.30;99.10
46139;DHT22;32398;49.112;8.598;2023-02-19T07:24:07;9.30;99.20
46139;DHT22;32398;49.112;8.598;2023-02-19T07:26:34;9.30;99.20
46139;DHT22;32398;49.112;8.598;2023-02-19T07:29:01;9.30;99.30
46139;DHT22;32398;49.112;8.598;2023-02-19T07:31:27;9.30;99.30
46139;DHT22;32398;49.112;8.598;2023-02-19T07:33:55;9.30;99.30
46139;DHT22;32398;49.112;8.598;2023-02-19T07:36:23;9.30;99.30
46139;DHT22;32398;49.112;8.598;2023-02-19T07:38:53;9.30;99.30
46139;DHT22;32398;49.112;8.598;2023-02-19T07:41:20;9.30;99.20
46139;DHT22;32398;49.112;8.598;2023-02-19T07:43:47;9.30;99.20
46139;DHT22;32398;49.112;8.598;2023-02-19T07:46:13;9.30;99.30
46139;DHT22;32398;49.112;8.598;2023-02-19T07:48:40;9.30;99.30
46139;DHT22;32398;49.112;8.598;2023-02-19T07:51:10;9.20;99.40
46139;DHT22;32398;49.112;8.598;2023-02-19T07:53:37;9.20;99.50
46139;DHT22;32398;49.112;8.598;2023-02-19T07:56:04;9.30;99.50
46139;DHT22;32398;49.112;8.598;2023-02-19T07:58:31;9.30;99.50
46139;DHT22;32398;49.112;8.598;2023-02-19T08:01:05;9.20;99.50
46139;DHT22;32398;49.112;8.598;2023-02-19T08:03:31;9.20;99.50
46139;DHT22;32398;49.112;8.598;2023-02-19T08:05:57;9.20;99.50
46139;DHT22;32398;49.112;8.598;2023-02-19T08:08:25;9.20;99.50
46139;DHT22;32398;49.112;8.598;2023-02-19T08:10:51;9.30;99.50
46139;DHT22;32398;49.112;8.598;2023-02-19T08:13:36;9.30;99.50
46139;DHT22;32398;49.112;8.598;2023-02-19T08:16:09;9.20;99.50
46139;DHT22;32398;49.112;8.598;2023-02-19T08:18:36;9.20;99.90
46139;DHT22;32398;49.112;8.598;2023-02-19T08:21:03;9.20;99.60
46139;DHT22;32398;49.112;8.598;2023-02-19T08:23:31;9.20;99.70
46139;DHT22;32398;49.112;8.598;2023-02-19T08:25:58;9.20;99.70
46139;DHT22;32398;49.112;8.598;2023-02-19T08:28:25;9.20;99.70
46139;DHT22;32398;49.112;8.598;2023-02-19T08:30:51;9.20;99.60
46139;DHT22;32398;49.112;8.598;2023-02-19T08:33:19;9.20;99.60
46139;DHT22;32398;49.112;8.598;2023-02-19T08:35:46;9.20;99.60
46139;DHT22;32398;49.112;8.598;2023-02-19T08:38:13;9.20;99.90
46139;DHT22;32398;49.112;8.598;2023-02-19T08:40:41;9.20;99.60
46139;DHT22;32398;49.112;8.598;2023-02-19T08:43:09;9.20;99.70
46139;DHT22;32398;49.112;8.598;2023-02-19T08:45:36;9.20;99.70
46139;DHT22;32398;49.112;8.598;2023-02-19T08:48:03;9.20;99.70
46139;DHT22;32398;49.112;8.598;2023-02-19T08:50:29;9.20;99.80
46139;DHT22;32398;49.112;8.598;2023-02-19T08:52:57;9.20;99.80
46139;DHT22;32398;49.112;8.598;2023-02-19T08:55:24;9.30;99.90
46139;DHT22;32398;49.112;8.598;2023-02-19T08:57:52;9.20;99.70
46139;DHT22;32398;49.112;8.598;2023-02-19T09:00:18;9.20;99.80
46139;DHT22;32398;49.112;8.598;2023-02-19T09:02:46;9.20;99.80
46139;DHT22;32398;49.112;8.598;2023-02-19T09:05:13;9.20;99.80
46139;DHT22;32398;49.112;8.598;2023-02-19T09:07:40;9.20;99.80
46139;DHT22;32398;49.112;8.598;2023-02-19T09:10:06;9.20;99.80
46139;DHT22;32398;49.112;8.598;2023-02-19T09:12:33;9.20;99.80
46139;DHT22;32398;49.112;8.598;2023-02-19T09:15:01;9.20;99.70
46139;DHT22;32398;49.112;8.598;2023-02-19T09:17:28;9.30;99.70
46139;DHT22;32398;49.112;8.598;2023-02-19T09:19:54;9.30;99.90
46139;DHT22;32398;49.112;8.598;2023-02-19T09:22:21;9.30;99.70
46139;DHT22;32398;49.112;8.598;2023-02-19T09:24:47;9.30;99.60
46139;DHT22;32398;49.112;8.598;2023-02-19T09:27:14;9.30;99.60
46139;DHT22;32398;49.112;8.598;2023-02-19T09:29:41;9.30;99.50
46139;DHT22;32398;49.112;8.598;2023-02-19T09:32:09;9.40;99.50
46139;DHT22;32398;49.112;8.598;2023-02-19T09:34:36;9.40;99.50
46139;DHT22;32398;49.112;8.598;2023-02-19T09:37:03;9.40;99.40
46139;DHT22;32398;49.112;8.598;2023-02-19T09:39:30;9.40;99.30
46139;DHT22;32398;49.112;8.598;2023-02-19T09:41:57;9.50;99.30
46139;DHT22;32398;49.112;8.598;2023-02-19T09:44:24;9.50;99.20
46139;DHT22;32398;49.112;8.598;2023-02-19T09:46:52;9.50;99.20
46139;DHT22;32398;49.112;8.598;2023-02-19T09:49:30;9.50;99.30
46139;DHT22;32398;49.112;8.598;2023-02-19T09:51:59;9.60;99.40
46139;DHT22;32398;49.112;8.598;2023-02-19T09:54:29;9.60;99.40
46139;DHT22;32398;49.112;8.598;2023-02-19T09:56:56;9.70;99.30
46139;DHT22;32398;49.112;8.598;2023-02-19T09:59:23;9.70;99.10
46139;DHT22;32398;49.112;8.598;2023-02-19T10:01:53;9.70;98.90
46139;DHT22;32398;49.112;8.598;2023-02-19T10:04:23;9.80;98.70
46139;DHT22;32398;49.112;8.598;2023-02-19T10:06:49;9.80;98.60
46139;DHT22;32398;49.112;8.598;2023-02-19T10:09:18;9.80;98.50
46139;DHT22;32398;49.112;8.598;2023-02-19T10:11:47;9.80;98.40
46139;DHT22;32398;49.112;8.598;2023-02-19T10:14:14;9.80;98.40
46139;DHT22;32398;49.112;8.598;2023-02-19T10:16:42;9.80;98.30
46139;DHT22;32398;49.112;8.598;2023-02-19T10:19:10;9.80;98.30
46139;DHT22;32398;49.112;8.598;2023-02-19T10:21:38;9.70;98.30
46139;DHT22;32398;49.112;8.598;2023-02-19T10:24:05;9.70;98.30
46139;DHT22;32398;49.112;8.598;2023-02-19T10:26:32;9.70;98.60
46139;DHT22;32398;49.112;8.598;2023-02-19T10:29:01;9.70;98.30
46139;DHT22;32398;49.112;8.598;2023-02-19T10:31:29;9.70;98.30
46139;DHT22;32398;49.112;8.598;2023-02-19T10:33:56;9.70;98.20
46139;DHT22;32398;49.112;8.598;2023-02-19T10:36:26;9.70;98.30
46139;DHT22;32398;49.112;8.598;2023-02-19T10:38:54;9.70;98.30
46139;DHT22;32398;49.112;8.598;2023-02-19T10:41:21;9.80;98.40
46139;DHT22;32398;49.112;8.598;2023-02-19T10:43:50;9.80;98.40
46139;DHT22;32398;49.112;8.598;2023-02-19T10:46:19;9.90;98.50
46139;DHT22;32398;49.112;8.598;2023-02-19T10:48:48;10.00;98.30
46139;DHT22;32398;49.112;8.598;2023-02-19T10:51:16;10.10;98.10
46139;DHT22;32398;49.112;8.598;2023-02-19T10:53:46;10.20;97.90
46139;DHT22;32398;49.112;8.598;2023-02-19T10:56:15;10.30;97.70
46139;DHT22;32398;49.112;8.598;2023-02-19T10:58:42;10.30;97.40
46139;DHT22;32398;49.112;8.598;2023-02-19T11:01:13;10.30;97.20
46139;DHT22;32398;49.112;8.598;2023-02-19T11:03:39;10.30;97.00
46139;DHT22;32398;49.112;8.598;2023-02-19T11:06:06;10.30;96.90
46139;DHT22;32398;49.112;8.598;2023-02-19T11:08:38;10.40;96.80
46139;DHT22;32398;49.112;8.598;2023-02-19T11:11:13;10.30;96.70
46139;DHT22;32398;49.112;8.598;2023-02-19T11:13:47;10.30;96.60
46139;DHT22;32398;49.112;8.598;2023-02-19T11:16:16;10.40;96.60
46139;DHT22;32398;49.112;8.598;2023-02-19T11:18:43;10.30;96.50
46139;DHT22;32398;49.112;8.598;2023-02-19T11:21:21;10.30;96.50
46139;DHT22;32398;49.112;8.598;2023-02-19T11:23:49;10.30;96.50
46139;DHT22;32398;49.112;8.598;2023-02-19T11:26:16;10.30;96.60
46139;DHT22;32398;49.112;8.598;2023-02-19T11:28:43;10.30;96.70
46139;DHT22;32398;49.112;8.598;2023-02-19T11:31:21;10.30;96.80
46139;DHT22;32398;49.112;8.598;2023-02-19T11:33:49;10.30;96.80
46139;DHT22;32398;49.112;8.598;2023-02-19T11:36:25;10.30;96.90
46139;DHT22;32398;49.112;8.598;2023-02-19T11:38:52;10.30;96.90
46139;DHT22;32398;49.112;8.598;2023-02-19T11:41:21;10.30;96.90
46139;DHT22;32398;49.112;8.598;2023-02-19T11:43:57;10.30;97.00
46139;DHT22;32398;49.112;8.598;2023-02-19T11:46:31;10.30;97.00
46139;DHT22;32398;49.112;8.598;2023-02-19T11:49:06;10.30;97.10
46139;DHT22;32398;49.112;8.598;2023-02-19T11:54:25;10.30;97.20
46139;DHT22;32398;49.112;8.598;2023-02-19T11:56:57;10.30;97.20
46139;DHT22;32398;49.112;8.598;2023-02-19T11:59:28;10.30;97.10
46139;DHT22;32398;49.112;8.598;2023-02-19T12:02:01;10.30;97.00
46139;DHT22;32398;49.112;8.598;2023-02-19T12:07:18;10.30;97.20
46139;DHT22;32398;49.112;8.598;2023-02-19T12:09:56;10.30;97.30
46139;DHT22;32398;49.112;8.598;2023-02-19T12:15:23;10.30;97.40
46139;DHT22;32398;49.112;8.598;2023-02-19T12:18:00;10.30;97.50
46139;DHT22;32398;49.112;8.598;2023-02-19T12:20:32;10.30;97.60
46139;DHT22;32398;49.112;8.598;2023-02-19T12:23:08;10.20;97.70
46139;DHT22;32398;49.112;8.598;2023-02-19T12:25:48;10.30;98.00
46139;DHT22;32398;49.112;8.598;2023-02-19T12:28:27;10.20;98.20
46139;DHT22;32398;49.112;8.598;2023-02-19T12:31:03;10.20;98.20
46139;DHT22;32398;49.112;8.598;2023-02-19T12:33:45;10.20;98.20
46139;DHT22;32398;49.112;8.598;2023-02-19T12:36:16;10.20;98.30
46139;DHT22;32398;49.112;8.598;2023-02-19T12:38:46;10.20;98.50
46139;DHT22;32398;49.112;8.598;2023-02-19T12:41:21;10.20;98.50
46139;DHT22;32398;49.112;8.598;2023-02-19T12:43:51;10.20;98.70
46139;DHT22;32398;49.112;8.598;2023-02-19T12:46:19;10.30;98.80
46139;DHT22;32398;49.112;8.598;2023-02-19T12:48:50;10.20;98.70
46139;DHT22;32398;49.112;8.598;2023-02-19T12:51:22;10.30;98.80
46139;DHT22;32398;49.112;8.598;2023-02-19T12:53:50;10.30;98.80
46139;DHT22;32398;49.112;8.598;2023-02-19T12:56:19;10.30;98.70
46139;DHT22;32398;49.112;8.598;2023-02-19T12:58:48;10.30;98.70
46139;DHT22;32398;49.112;8.598;2023-02-19T13:01:17;10.30;98.70
46139;DHT22;32398;49.112;8.598;2023-02-19T13:03:46;10.30;98.70
46139;DHT22;32398;49.112;8.598;2023-02-19T13:06:19;10.40;98.70
46139;DHT22;32398;49.112;8.598;2023-02-19T13:08:49;10.30;98.70
46139;DHT22;32398;49.112;8.598;2023-02-19T13:11:20;10.30;98.70
46139;DHT22;32398;49.112;8.598;2023-02-19T13:13:49;10.40;98.70
46139;DHT22;32398;49.112;8.598;2023-02-19T13:16:18;10.40;98.80
46139;DHT22;32398;49.112;8.598;2023-02-19T13:18:47;10.40;98.80
46139;DHT22;32398;49.112;8.598;2023-02-19T13:21:17;10.40;98.70
46139;DHT22;32398;49.112;8.598;2023-02-19T13:23:59;10.40;98.70
46139;DHT22;32398;49.112;8.598;2023-02-19T13:29:19;10.40;98.60
46139;DHT22;32398;49.112;8.598;2023-02-19T13:31:53;10.40;98.50
46139;DHT22;32398;49.112;8.598;2023-02-19T13:34:25;10.50;98.40
46139;DHT22;32398;49.112;8.598;2023-02-19T13:36:58;10.50;98.40
46139;DHT22;32398;49.112;8.598;2023-02-19T13:39:25;10.50;98.30
46139;DHT22;32398;49.112;8.598;2023-02-19T13:41:52;10.50;98.10
46139;DHT22;32398;49.112;8.598;2023-02-19T13:44:20;10.50;98.00
46139;DHT22;32398;49.112;8.598;2023-02-19T13:46:47;10.50;97.90
46139;DHT22;32398;49.112;8.598;2023-02-19T13:54:51;10.50;97.80
46139;DHT22;32398;49.112;8.598;2023-02-19T13:57:18;10.50;97.80
46139;DHT22;32398;49.112;8.598;2023-02-19T13:59:50;10.50;97.80
46139;DHT22;32398;49.112;8.598;2023-02-19T14:04:53;10.50;97.70
46139;DHT22;32398;49.112;8.598;2023-02-19T14:10:12;10.50;97.50
46139;DHT22;32398;49.112;8.598;2023-02-19T14:12:38;10.60;97.40
46139;DHT22;32398;49.112;8.598;2023-02-19T14:17:50;10.60;97.10
46139;DHT22;32398;49.112;8.598;2023-02-19T14:25:52;10.60;96.80
46139;DHT22;32398;49.112;8.598;2023-02-19T14:28:30;10.70;96.70
46139;DHT22;32398;49.112;8.598;2023-02-19T14:31:02;10.60;96.60
46139;DHT22;32398;49.112;8.598;2023-02-19T14:33:33;10.60;96.50
46139;DHT22;32398;49.112;8.598;2023-02-19T14:36:01;10.70;96.40
46139;DHT22;32398;49.112;8.598;2023-02-19T14:38:31;10.70;96.30
46139;DHT22;32398;49.112;8.598;2023-02-19T14:41:00;10.70;96.20
46139;DHT22;32398;49.112;8.598;2023-02-19T14:43:26;10.70;96.10
46139;DHT22;32398;49.112;8.598;2023-02-19T14:45:54;10.70;96.10
46139;DHT22;32398;49.112;8.598;2023-02-19T14:48:23;10.70;96.00
46139;DHT22;32398;49.112;8.598;2023-02-19T14:50:51;10.70;96.10
46139;DHT22;32398;49.112;8.598;2023-02-19T14:53:19;10.70;96.00
46139;DHT22;32398;49.112;8.598;2023-02-19T14:55:47;10.70;96.00
46139;DHT22;32398;49.112;8.598;2023-02-19T14:58:16;10.70;96.00
46139;DHT22;32398;49.112;8.598;2023-02-19T15:00:44;10.70;96.00
46139;DHT22;32398;49.112;8.598;2023-02-19T15:03:24;10.80;96.00
46139;DHT22;32398;49.112;8.598;2023-02-19T15:05:53;10.70;95.90
46139;DHT22;32398;49.112;8.598;2023-02-19T15:08:27;10.70;95.90
46139;DHT22;32398;49.112;8.598;2023-02-19T15:10:54;10.70;95.90
46139;DHT22;32398;49.112;8.598;2023-02-19T15:13:23;10.70;95.90
46139;DHT22;32398;49.112;8.598;2023-02-19T15:15:50;10.70;95.80
46139;DHT22;32398;49.112;8.598;2023-02-19T15:18:18;10.70;95.80
46139;DHT22;32398;49.112;8.598;2023-02-19T15:20:45;10.70;95.80
46139;DHT22;32398;49.112;8.598;2023-02-19T15:23:15;10.70;95.80
46139;DHT22;32398;49.112;8.598;2023-02-19T15:25:43;10.70;95.80
46139;DHT22;32398;49.112;8.598;2023-02-19T15:28:20;10.70;95.80
46139;DHT22;32398;49.112;8.598;2023-02-19T15:30:48;10.70;95.80
46139;DHT22;32398;49.112;8.598;2023-02-19T15:33:15;10.70;95.80
46139;DHT22;32398;49.112;8.598;2023-02-19T15:35:46;10.70;95.70
46139;DHT22;32398;49.112;8.598;2023-02-19T15:38:12;10.70;95.60
46139;DHT22;32398;49.112;8.598;2023-02-19T15:40:40;10.70;95.50
46139;DHT22;32398;49.112;8.598;2023-02-19T15:43:09;10.70;95.40
46139;DHT22;32398;49.112;8.598;2023-02-19T15:45:40;10.70;95.30
46139;DHT22;32398;49.112;8.598;2023-02-19T15:48:08;10.70;95.20
46139;DHT22;32398;49.112;8.598;2023-02-19T15:50:38;10.70;95.10
46139;DHT22;32398;49.112;8.598;2023-02-19T15:53:06;10.70;95.10
46139;DHT22;32398;49.112;8.598;2023-02-19T15:55:34;10.70;95.00
46139;DHT22;32398;49.112;8.598;2023-02-19T15:58:03;10.70;94.90
46139;DHT22;32398;49.112;8.598;2023-02-19T16:00:35;10.70;94.70
46139;DHT22;32398;49.112;8.598;2023-02-19T16:03:02;10.60;94.60
46139;DHT22;32398;49.112;8.598;2023-02-19T16:05:31;10.70;94.50
46139;DHT22;32398;49.112;8.598;2023-02-19T16:08:04;10.60;94.50
46139;DHT22;32398;49.112;8.598;2023-02-19T16:10:31;10.60;94.50
46139;DHT22;32398;49.112;8.598;2023-02-19T16:12:58;10.60;94.50
46139;DHT22;32398;49.112;8.598;2023-02-19T16:15:25;10.60;94.50
46139;DHT22;32398;49.112;8.598;2023-02-19T16:17:52;10.70;94.60
46139;DHT22;32398;49.112;8.598;2023-02-19T16:20:20;10.60;94.60